Time;durP1;ratioP1;P1;durP2;ratioP2;P2;SDS_P1;SDS_P2;PMS_P1;PMS_P2;Temp;Humidity;BMP_temperature;BMP_pressure;BME280_temperature;BME280_humidity;BME280_pressure;Samples;Min_cycle;Max_cycle;Signal;HPM_P1;HPM_P2
2022/02/09 00:00:42;;;;;;;1.70;1.10;;;16.60;60.90;;;;;;5044000;28;20480;-69
2022/02/09 00:05:57;;;;;;;1.35;1.00;;;16.60;60.70;;;;;;5044161;28;20553;-69
2022/02/09 00:08:23;;;;;;;1.13;0.80;;;16.60;60.80;;;;;;5028603;28;20507;-65
2022/02/09 00:10:56;;;;;;;1.60;0.88;;;16.60;60.80;;;;;;5044123;28;20186;-65
2022/02/09 00:13:59;;;;;;;1.73;1.00;;;16.60;60.80;;;;;;5044225;28;20106;-69
2022/02/09 00:16:36;;;;;;;2.80;0.95;;;16.60;60.70;;;;;;5026753;28;20025;-68
2022/02/09 00:19:11;;;;;;;2.30;1.48;;;16.60;60.60;;;;;;5043490;28;20404;-69
2022/02/09 00:21:59;;;;;;;2.45;0.90;;;16.60;60.60;;;;;;5043400;28;20029;-69
2022/02/09 00:30:16;;;;;;;1.33;0.82;;;16.60;60.60;;;;;;5044065;28;20146;-69
2022/02/09 00:59:03;;;;;;;2.10;0.83;;;16.60;60.40;;;;;;5040842;28;20040;-69
2022/02/09 01:40:56;;;;;;;1.85;0.80;;;16.70;60.20;;;;;;5046481;28;20040;-65
2022/02/09 01:43:55;;;;;;;1.70;0.80;;;16.70;60.20;;;;;;5040088;28;20021;-69
2022/02/09 01:56:52;;;;;;;1.60;0.80;;;16.60;60.00;;;;;;5028682;28;20446;-68
2022/02/09 01:59:18;;;;;;;1.30;0.60;;;16.70;60.10;;;;;;5027781;28;20064;-70
2022/02/09 02:01:44;;;;;;;1.55;0.73;;;16.70;60.10;;;;;;5046594;28;20029;-69
2022/02/09 02:04:09;;;;;;;1.27;0.77;;;16.70;60.00;;;;;;5046768;28;20025;-65
2022/02/09 02:06:35;;;;;;;0.57;0.57;;;16.70;60.00;;;;;;5041480;28;20017;-65
2022/02/09 02:09:01;;;;;;;0.80;0.75;;;16.70;60.00;;;;;;5035680;28;20025;-68
2022/02/09 02:11:32;;;;;;;1.25;0.60;;;16.70;60.00;;;;;;5044547;28;20120;-68
2022/02/09 02:19:30;;;;;;;2.30;0.77;;;16.70;59.90;;;;;;5046187;28;20030;-68
2022/02/09 02:24:57;;;;;;;2.22;0.93;;;16.70;59.80;;;;;;5029929;28;20075;-69
2022/02/09 02:27:53;;;;;;;1.33;0.80;;;16.70;59.80;;;;;;5046955;28;20021;-68
2022/02/09 02:41:55;;;;;;;2.25;0.70;;;16.60;59.60;;;;;;5045925;28;20036;-68
2022/02/09 02:46:56;;;;;;;0.82;0.60;;;16.70;59.60;;;;;;5046129;28;20032;-68
2022/02/09 02:57:58;;;;;;;2.58;0.75;;;16.70;59.60;;;;;;5044886;28;20136;-69
2022/02/09 03:11:34;;;;;;;1.00;0.80;;;16.60;59.50;;;;;;5027193;28;20041;-69
2022/02/09 03:14:05;;;;;;;0.77;0.57;;;16.60;59.40;;;;;;5040731;28;20021;-68
2022/02/09 03:16:37;;;;;;;0.75;0.60;;;16.70;59.40;;;;;;5044432;28;20611;-68
2022/02/09 03:24:29;;;;;;;1.00;0.80;;;16.60;59.40;;;;;;5044829;28;20118;-69
2022/02/09 03:46:33;;;;;;;0.80;0.52;;;16.70;59.30;;;;;;5040284;28;20087;-69
2022/02/09 03:49:17;;;;;;;0.73;0.50;;;16.60;59.30;;;;;;5013890;28;20037;-69
2022/02/09 03:56:57;;;;;;;1.45;0.50;;;16.60;59.20;;;;;;5026362;28;20744;-68
2022/02/09 03:59:23;;;;;;;0.98;0.68;;;16.60;59.20;;;;;;5039647;28;20021;-69
2022/02/09 04:01:49;;;;;;;1.08;0.70;;;16.60;59.20;;;;;;5044757;28;20424;-65
2022/02/09 04:04:14;;;;;;;0.40;0.40;;;16.60;59.10;;;;;;5044115;28;20029;-69
2022/02/09 04:06:40;;;;;;;0.65;0.40;;;16.70;59.20;;;;;;5044430;28;20094;-69
2022/02/09 04:09:10;;;;;;;4.53;0.60;;;16.70;59.20;;;;;;5042386;28;20029;-65
2022/02/09 04:11:45;;;;;;;2.03;0.60;;;16.70;59.30;;;;;;5044481;28;20025;-65
2022/02/09 04:14:27;;;;;;;0.80;0.50;;;16.60;59.30;;;;;;5043948;28;20380;-65
2022/02/09 04:17:21;;;;;;;1.25;0.70;;;16.60;59.40;;;;;;5029079;28;20025;-69
2022/02/09 04:38:55;;;;;;;0.70;0.52;;;16.60;59.70;;;;;;5018650;28;20029;-67
2022/02/09 04:44:02;;;;;;;0.55;0.50;;;16.60;59.70;;;;;;5048492;28;20140;-68
2022/02/09 04:51:45;;;;;;;0.98;0.50;;;16.60;59.70;;;;;;5047573;28;20060;-69
2022/02/09 04:54:36;;;;;;;0.52;0.40;;;16.60;59.80;;;;;;5047185;28;20047;-69
2022/02/09 04:57:07;;;;;;;2.30;0.50;;;16.60;59.70;;;;;;5043265;28;20136;-69
2022/02/09 04:59:43;;;;;;;0.50;0.40;;;16.60;59.80;;;;;;5047077;28;20111;-68
2022/02/09 05:24:07;;;;;;;0.40;0.32;;;16.60;59.90;;;;;;5047019;28;20127;-69
2022/02/09 05:26:42;;;;;;;1.63;0.40;;;16.60;59.80;;;;;;5044005;28;20037;-68
2022/02/09 05:29:08;;;;;;;0.38;0.30;;;16.60;59.80;;;;;;5046649;28;20069;-68
2022/02/09 05:31:33;;;;;;;0.57;0.50;;;16.60;59.60;;;;;;5046951;28;20118;-69
2022/02/09 05:33:59;;;;;;;1.27;0.47;;;16.60;59.60;;;;;;5046177;28;20032;-68
2022/02/09 05:36:24;;;;;;;2.65;0.40;;;16.70;59.50;;;;;;5046919;28;20040;-69
2022/02/09 05:38:50;;;;;;;0.85;0.40;;;16.70;59.50;;;;;;5046286;28;20025;-64
2022/02/09 05:41:15;;;;;;;0.35;0.35;;;16.70;59.40;;;;;;5047153;28;20542;-69
2022/02/09 05:43:41;;;;;;;0.70;0.40;;;16.70;59.40;;;;;;5045919;28;20571;-68
2022/02/09 05:46:43;;;;;;;0.50;0.50;;;16.70;59.30;;;;;;5046924;28;20037;-70
2022/02/09 05:56:46;;;;;;;1.05;0.60;;;16.70;59.20;;;;;;5046655;28;20491;-64
2022/02/09 05:59:45;;;;;;;0.50;0.47;;;16.70;59.10;;;;;;5045854;28;20083;-69
2022/02/09 06:02:05;;;;;;;0.68;0.40;;;16.70;59.00;;;;;;5041562;28;20029;-69
2022/02/09 06:04:30;;;;;;;0.47;0.40;;;16.70;59.00;;;;;;5046090;28;20029;-68
2022/02/09 06:06:57;;;;;;;0.32;0.30;;;16.80;59.00;;;;;;5046231;28;20044;-68
2022/02/09 06:09:22;;;;;;;0.68;0.50;;;16.80;59.00;;;;;;5045157;28;20029;-69
2022/02/09 06:11:54;;;;;;;1.85;0.40;;;16.70;59.00;;;;;;5045874;28;20040;-68
2022/02/09 06:14:52;;;;;;;0.30;0.30;;;16.80;59.00;;;;;;5046271;28;20064;-66
2022/02/09 06:20:07;;;;;;;0.98;0.50;;;16.70;58.80;;;;;;5045321;28;20595;-67
2022/02/09 06:22:33;;;;;;;0.95;0.52;;;16.70;58.90;;;;;;5046273;28;20061;-68
2022/02/09 06:24:58;;;;;;;0.77;0.43;;;16.70;58.80;;;;;;5046584;28;20060;-64
2022/02/09 06:27:24;;;;;;;1.17;0.43;;;16.70;58.90;;;;;;5028342;28;20487;-66
2022/02/09 06:29:49;;;;;;;1.48;0.50;;;16.70;59.00;;;;;;5046117;28;20095;-67
2022/02/09 06:32:17;;;;;;;1.42;0.40;;;16.80;59.00;;;;;;5028227;28;20037;-65
2022/02/09 06:34:43;;;;;;;3.72;0.88;;;16.80;59.00;;;;;;5037214;28;20035;-67
2022/02/09 06:37:25;;;;;;;12.13;0.88;;;16.70;59.20;;;;;;5045266;28;20040;-68
2022/02/09 06:39:58;;;;;;;6.93;1.20;;;16.70;59.20;;;;;;5042838;28;20029;-69
2022/02/09 06:42:24;;;;;;;4.93;0.90;;;16.70;59.40;;;;;;5046043;28;20116;-69
2022/02/09 06:44:51;;;;;;;5.72;1.98;;;16.70;59.70;;;;;;5063366;22;20569;-77
2022/02/09 06:47:24;;;;;;;4.80;2.38;;;16.60;59.80;;;;;;5019240;28;20030;-76
2022/02/09 06:49:57;;;;;;;6.60;2.60;;;16.60;59.80;;;;;;5034359;23;20262;-59
2022/02/09 06:52:23;;;;;;;8.30;3.47;;;16.60;59.80;;;;;;5044136;28;20044;-56
2022/02/09 06:55:12;;;;;;;15.82;2.80;;;16.60;59.80;;;;;;5053048;28;20033;-55
2022/02/09 07:00:17;;;;;;;11.20;3.45;;;16.70;59.70;;;;;;5050372;28;20033;-57
2022/02/09 07:02:43;;;;;;;11.80;3.45;;;16.70;59.50;;;;;;5048832;28;20021;-55
2022/02/09 07:05:12;;;;;;;7.85;3.00;;;16.70;59.40;;;;;;5031436;28;20302;-58
2022/02/09 07:07:38;;;;;;;7.93;3.00;;;16.70;59.20;;;;;;5052664;28;20182;-55
2022/02/09 07:10:04;;;;;;;9.68;3.28;;;16.70;59.10;;;;;;5055244;28;20147;-63
2022/02/09 07:12:30;;;;;;;11.30;3.55;;;16.70;59.00;;;;;;5035761;28;20152;-57
2022/02/09 07:14:55;;;;;;;8.98;3.13;;;16.70;58.90;;;;;;5035034;28;20112;-57
2022/02/09 07:17:21;;;;;;;7.07;2.60;;;16.70;58.70;;;;;;5027431;28;20089;-60
2022/02/09 07:19:56;;;;;;;20.73;9.65;;;16.70;58.60;;;;;;5021939;28;20045;-56
2022/02/09 07:22:27;;;;;;;29.90;13.45;;;16.70;59.60;;;;;;5027615;28;20035;-58
2022/02/09 07:25:04;;;;;;;34.30;15.75;;;16.70;61.50;;;;;;5044813;28;20032;-56
2022/02/09 07:27:50;;;;;;;29.80;15.23;;;16.80;62.20;;;;;;5036835;28;20036;-59
2022/02/09 07:30:22;;;;;;;33.15;15.18;;;16.80;63.40;;;;;;5055326;28;20033;-61
2022/02/09 07:32:54;;;;;;;29.67;15.00;;;16.80;63.50;;;;;;5030700;28;20091;-59
2022/02/09 07:35:20;;;;;;;29.23;14.95;;;16.80;63.70;;;;;;5033232;28;20036;-60
2022/02/09 07:37:45;;;;;;;32.47;13.35;;;16.80;63.40;;;;;;5031525;28;20032;-58
2022/02/09 07:40:12;;;;;;;25.38;12.85;;;16.80;63.40;;;;;;5054733;28;20037;-59
2022/02/09 07:42:44;;;;;;;25.80;12.88;;;16.70;63.00;;;;;;5030675;28;20086;-56
2022/02/09 07:45:39;;;;;;;24.70;12.25;;;16.70;62.90;;;;;;5029537;28;20445;-59
2022/02/09 07:50:46;;;;;;;23.17;11.15;;;16.70;62.40;;;;;;5050250;28;20508;-54
2022/02/09 07:55:46;;;;;;;23.53;11.07;;;16.70;61.90;;;;;;5045001;28;20025;-59
2022/02/09 07:58:12;;;;;;;22.35;11.05;;;16.70;61.70;;;;;;5017278;28;20032;-54
2022/02/09 08:00:38;;;;;;;26.92;10.90;;;16.70;61.60;;;;;;5059464;28;20436;-57
2022/02/09 08:03:04;;;;;;;18.00;9.13;;;16.70;61.30;;;;;;5031812;28;20052;-59
2022/02/09 08:05:30;;;;;;;17.27;9.07;;;16.70;61.10;;;;;;5049105;28;20083;-58
2022/02/09 08:07:56;;;;;;;21.02;9.90;;;16.70;61.00;;;;;;5054843;28;20040;-55
2022/02/09 08:10:38;;;;;;;18.48;9.15;;;16.70;60.90;;;;;;5045871;28;20105;-54
2022/02/09 08:24:13;;;;;;;22.63;10.27;;;16.80;62.20;;;;;;5055478;28;20029;-55
2022/02/09 08:26:52;;;;;;;22.70;9.15;;;16.80;62.10;;;;;;5037891;28;20037;-59
2022/02/09 08:34:27;;;;;;;24.02;8.10;;;16.80;62.00;;;;;;5046590;28;20480;-57
2022/02/09 08:36:54;;;;;;;21.98;6.82;;;16.80;62.10;;;;;;5059256;28;20121;-59
2022/02/09 08:39:20;;;;;;;13.65;6.25;;;16.80;62.10;;;;;;5032140;28;20119;-55
2022/02/09 08:41:45;;;;;;;11.13;6.30;;;16.80;61.80;;;;;;5059446;28;20104;-60
2022/02/09 08:44:11;;;;;;;18.05;6.93;;;16.80;61.60;;;;;;5055502;28;20071;-58
2022/02/09 08:46:37;;;;;;;12.68;6.43;;;16.80;61.70;;;;;;5019405;28;20029;-56
2022/02/09 08:49:03;;;;;;;14.05;6.93;;;16.80;61.50;;;;;;5053612;28;20517;-52
2022/02/09 08:51:28;;;;;;;17.67;5.90;;;16.80;61.50;;;;;;5035920;28;20044;-55
2022/02/09 08:53:55;;;;;;;11.55;5.57;;;16.80;61.30;;;;;;5054964;28;20032;-57
2022/02/09 08:56:20;;;;;;;13.85;5.72;;;16.80;61.20;;;;;;5033118;28;20095;-59
2022/02/09 08:58:46;;;;;;;11.05;5.13;;;16.80;61.20;;;;;;5057591;28;20024;-60
2022/02/09 09:01:23;;;;;;;9.48;5.15;;;16.80;61.40;;;;;;5041872;28;20075;-57
2022/02/09 09:03:55;;;;;;;13.85;5.70;;;16.80;61.30;;;;;;5055978;28;20242;-60
2022/02/09 09:06:24;;;;;;;13.10;5.38;;;16.80;61.10;;;;;;5031562;28;20021;-60
2022/02/09 10:32:03;;;;;;;4.57;2.42;;;16.80;60.10;;;;;;5032357;28;20043;-54
2022/02/09 10:34:31;;;;;;;3.92;2.65;;;16.80;60.10;;;;;;5042254;28;20024;-54
2022/02/09 10:37:03;;;;;;;3.95;2.63;;;16.80;60.00;;;;;;5051586;28;20090;-56
2022/02/09 10:39:44;;;;;;;5.90;2.83;;;16.90;60.10;;;;;;5032179;28;20056;-59
2022/02/09 10:44:47;;;;;;;4.97;2.35;;;16.80;59.90;;;;;;5048351;28;20117;-60
2022/02/09 10:47:27;;;;;;;5.18;2.42;;;16.80;59.90;;;;;;5029938;28;20033;-57
2022/02/09 10:50:23;;;;;;;7.28;2.88;;;16.80;59.90;;;;;;5036225;28;20036;-56
2022/02/09 10:52:49;;;;;;;6.38;2.65;;;16.80;60.00;;;;;;5047324;28;20375;-57
2022/02/09 10:55:34;;;;;;;5.50;2.35;;;16.80;60.00;;;;;;5038419;28;20062;-59
2022/02/09 10:58:17;;;;;;;3.97;2.45;;;16.80;59.90;;;;;;5057612;28;20616;-57
2022/02/09 11:00:43;;;;;;;4.00;2.40;;;16.80;59.90;;;;;;5034015;28;20043;-58
2022/02/09 11:03:16;;;;;;;4.07;2.35;;;16.80;59.90;;;;;;5028435;28;20025;-58
2022/02/09 11:05:44;;;;;;;4.03;1.95;;;16.70;59.80;;;;;;5053998;28;20397;-58
2022/02/09 11:08:09;;;;;;;4.18;2.10;;;16.80;59.90;;;;;;5028870;28;20494;-59
2022/02/09 11:10:35;;;;;;;3.28;1.98;;;16.80;59.80;;;;;;5025948;28;20063;-55
2022/02/09 11:13:03;;;;;;;4.15;2.40;;;16.80;59.80;;;;;;5049816;28;20029;-56
2022/02/09 11:15:28;;;;;;;3.90;2.10;;;16.70;59.80;;;;;;5041171;28;20036;-56
2022/02/09 11:17:53;;;;;;;3.22;1.80;;;16.70;59.80;;;;;;5054758;28;20070;-60
2022/02/09 11:20:27;;;;;;;3.47;2.03;;;16.80;59.80;;;;;;5031265;28;20033;-57
2022/02/09 11:22:53;;;;;;;3.50;1.90;;;16.80;59.80;;;;;;5035283;28;20036;-55
2022/02/09 11:25:26;;;;;;;3.97;1.73;;;16.70;60.10;;;;;;5031616;28;20033;-59
2022/02/09 11:28:21;;;;;;;2.78;2.05;;;16.70;60.40;;;;;;5041579;28;20045;-58
2022/02/09 11:31:13;;;;;;;3.13;1.90;;;16.60;60.40;;;;;;5056923;28;20481;-57
2022/02/09 11:34:00;;;;;;;2.35;1.45;;;16.70;60.50;;;;;;5026874;28;20031;-56
2022/02/09 11:36:42;;;;;;;3.03;1.77;;;16.70;60.50;;;;;;5056725;28;20120;-57
2022/02/09 11:39:20;;;;;;;2.92;1.70;;;16.60;60.50;;;;;;5058023;28;20162;-53
2022/02/09 11:42:22;;;;;;;4.03;1.65;;;16.70;60.50;;;;;;5036388;28;20033;-55
2022/02/09 11:48:01;;;;;;;4.00;1.80;;;16.70;60.60;;;;;;5050564;28;20128;-55
2022/02/09 12:09:45;;;;;;;4.60;1.63;;;16.70;61.00;;;;;;5035130;28;20094;-55
2022/02/09 12:12:15;;;;;;;2.85;1.52;;;16.80;61.30;;;;;;5013409;28;20046;-57
2022/02/09 12:20:16;;;;;;;2.65;1.50;;;16.80;61.40;;;;;;5018642;28;20042;-58
2022/02/09 12:22:48;;;;;;;2.60;1.30;;;16.80;61.30;;;;;;5038718;28;20502;-57
2022/02/09 12:25:14;;;;;;;4.47;1.88;;;16.80;61.40;;;;;;5030724;28;20037;-53
2022/02/09 12:27:40;;;;;;;1.98;1.20;;;16.90;61.40;;;;;;5052673;28;20035;-58
2022/02/09 12:30:12;;;;;;;2.53;1.67;;;16.80;61.40;;;;;;5033478;28;20036;-58
2022/02/09 12:32:37;;;;;;;3.55;1.70;;;16.90;61.50;;;;;;5032351;28;20033;-55
2022/02/09 12:35:10;;;;;;;3.47;1.50;;;16.90;61.50;;;;;;5019525;28;20040;-55
2022/02/09 12:37:43;;;;;;;4.65;1.58;;;16.90;61.50;;;;;;5048931;28;20461;-58
2022/02/09 12:40:17;;;;;;;3.03;1.40;;;16.90;61.40;;;;;;5020015;28;20099;-59
2022/02/09 12:42:47;;;;;;;2.78;1.40;;;16.90;61.40;;;;;;5028235;28;20177;-53
2022/02/09 12:45:25;;;;;;;2.58;1.38;;;16.90;61.40;;;;;;5030447;28;20044;-55
2022/02/09 12:47:55;;;;;;;5.22;1.67;;;16.90;61.40;;;;;;5025514;28;20032;-59
2022/02/09 12:50:26;;;;;;;1.63;1.08;;;16.90;61.30;;;;;;5053543;28;20051;-61
2022/02/09 12:52:52;;;;;;;2.90;1.27;;;16.90;61.40;;;;;;5052398;28;20029;-55
2022/02/09 12:55:19;;;;;;;1.95;1.38;;;16.90;61.40;;;;;;5032855;28;20109;-56
2022/02/09 12:58:04;;;;;;;2.42;1.10;;;17.00;61.40;;;;;;5055985;28;20078;-56
2022/02/09 13:00:33;;;;;;;4.15;1.30;;;16.90;61.10;;;;;;5036883;28;20439;-55
2022/02/09 13:03:01;;;;;;;3.08;1.45;;;17.00;61.00;;;;;;5033775;28;20111;-59
2022/02/09 13:05:27;;;;;;;2.67;1.38;;;17.00;60.90;;;;;;5044188;28;20116;-56
2022/02/09 13:07:57;;;;;;;6.75;1.48;;;17.00;60.70;;;;;;5038140;28;20108;-57
2022/02/09 13:10:43;;;;;;;10.52;1.60;;;17.00;60.70;;;;;;5033041;28;20036;-56
2022/02/09 13:13:13;;;;;;;5.85;1.80;;;17.00;60.50;;;;;;5054222;28;20094;-59
2022/02/09 13:18:56;;;;;;;3.67;1.33;;;17.10;60.30;;;;;;5038252;28;20539;-58
2022/02/09 13:53:00;;;;;;;3.33;1.50;;;17.00;61.70;;;;;;4985999;28;20518;-58
2022/02/09 14:02:54;;;;;;;2.92;1.40;;;17.00;61.60;;;;;;4987430;28;20018;-58
2022/02/09 14:14:58;;;;;;;3.42;1.00;;;17.00;61.20;;;;;;4973998;28;20027;-58
2022/02/09 14:17:12;;;;;;;2.15;1.40;;;17.10;61.20;;;;;;5001753;28;20416;-58
2022/02/09 14:52:13;;;;;;;2.78;0.90;;;17.10;60.70;;;;;;4984614;28;20130;-58
2022/02/09 14:54:50;;;;;;;1.90;1.00;;;17.10;60.70;;;;;;5024316;28;20064;-57
2022/02/09 14:57:21;;;;;;;3.33;1.15;;;17.10;60.70;;;;;;4994541;28;20033;-60
2022/02/09 15:02:20;;;;;;;2.70;1.40;;;17.10;60.70;;;;;;4984087;28;20031;-59
2022/02/09 15:09:46;;;;;;;2.17;0.98;;;17.10;60.70;;;;;;4987760;28;20129;-59
2022/02/09 15:15:05;;;;;;;2.42;0.90;;;17.10;60.60;;;;;;4977326;28;20627;-59
2022/02/09 15:17:49;;;;;;;3.40;1.17;;;17.10;60.60;;;;;;4993796;28;20376;-58
2022/02/09 15:20:40;;;;;;;2.10;1.00;;;17.10;60.60;;;;;;4989197;28;20669;-59
2022/02/09 15:23:00;;;;;;;1.83;0.88;;;17.20;60.40;;;;;;5004528;28;20036;-58
2022/02/09 15:25:31;;;;;;;1.67;1.13;;;17.30;60.20;;;;;;5004192;28;20034;-56
2022/02/09 15:27:59;;;;;;;1.75;1.20;;;17.30;60.00;;;;;;5004019;28;20026;-59
2022/02/09 15:30:26;;;;;;;1.55;0.90;;;17.30;59.70;;;;;;5003463;28;20045;-56
2022/02/09 15:32:54;;;;;;;2.33;1.10;;;17.30;59.50;;;;;;5003682;28;20034;-59
2022/02/09 15:35:33;;;;;;;1.58;1.17;;;17.30;59.20;;;;;;5004030;28;20402;-58
2022/02/09 15:38:09;;;;;;;3.22;1.20;;;17.30;59.00;;;;;;5003976;28;20431;-59
2022/02/09 15:40:45;;;;;;;2.45;1.20;;;17.30;58.90;;;;;;5001257;28;20478;-59
2022/02/09 15:56:51;;;;;;;1.05;0.85;;;17.10;60.30;;;;;;4986861;28;20506;-58
2022/02/09 15:59:34;;;;;;;2.08;1.10;;;17.10;60.30;;;;;;5002334;28;20068;-58
2022/02/09 16:08:16;;;;;;;1.27;0.93;;;17.10;60.30;;;;;;4984178;28;20102;-59
2022/02/09 16:19:30;;;;;;;2.08;0.90;;;17.10;60.30;;;;;;5003061;28;20084;-59
2022/02/09 16:21:46;;;;;;;1.52;0.95;;;17.10;60.30;;;;;;5003690;28;20034;-59
2022/02/09 16:24:27;;;;;;;1.48;1.10;;;17.10;60.30;;;;;;5003247;28;20109;-58
2022/02/09 16:36:15;;;;;;;4.30;0.98;;;17.20;60.30;;;;;;5006773;28;20045;-59
2022/02/09 16:38:11;;;;;;;1.30;1.05;;;17.20;60.30;;;;;;5006463;28;20022;-58
2022/02/09 16:46:15;;;;;;;1.23;1.10;;;17.20;60.10;;;;;;5006168;28;20096;-58
2022/02/09 16:48:50;;;;;;;3.03;1.05;;;17.20;60.20;;;;;;4982049;28;20030;-59
2022/02/09 16:51:19;;;;;;;0.95;0.82;;;17.20;60.30;;;;;;4977064;28;20045;-59
2022/02/09 16:53:56;;;;;;;1.10;0.90;;;17.20;60.30;;;;;;4987554;28;20035;-59
2022/02/09 16:56:42;;;;;;;2.00;1.00;;;17.20;60.10;;;;;;4979821;28;20073;-56
2022/02/09 17:18:48;;;;;;;0.85;0.80;;;17.20;60.40;;;;;;4987423;28;20396;-59
2022/02/09 17:21:13;;;;;;;2.38;0.93;;;17.20;60.50;;;;;;5000571;28;20052;-62
2022/02/09 17:23:38;;;;;;;2.20;1.00;;;17.20;60.40;;;;;;5007048;28;20811;-59
2022/02/09 17:26:04;;;;;;;1.13;0.95;;;17.20;60.40;;;;;;5006892;28;20034;-59
2022/02/09 17:28:29;;;;;;;2.95;1.10;;;17.20;60.40;;;;;;5006426;28;20278;-56
2022/02/09 17:31:02;;;;;;;1.50;0.77;;;17.20;60.30;;;;;;5006307;28;20041;-57
2022/02/09 17:36:05;;;;;;;2.25;1.20;;;17.20;60.30;;;;;;5006250;28;20022;-57
2022/02/09 17:38:41;;;;;;;1.40;1.00;;;17.20;60.40;;;;;;5005984;28;20038;-58
2022/02/09 17:57:48;;;;;;;1.27;0.95;;;17.20;60.10;;;;;;4986828;28;20539;-59
2022/02/09 18:00:17;;;;;;;1.50;0.90;;;17.20;60.00;;;;;;4988870;28;20042;-61
2022/02/09 18:02:48;;;;;;;1.40;0.95;;;17.20;59.90;;;;;;4969762;28;20069;-59
2022/02/09 18:07:49;;;;;;;3.03;1.00;;;17.20;59.70;;;;;;4969756;28;20022;-59
2022/02/09 18:13:57;;;;;;;1.48;0.93;;;17.10;59.60;;;;;;4986409;28;20038;-56
2022/02/09 18:29:22;;;;;;;2.03;1.17;;;17.10;60.40;;;;;;5004521;28;20258;-58
2022/02/09 19:03:35;;;;;;;1.73;1.00;;;17.10;60.50;;;;;;4985079;28;20042;-59
2022/02/09 19:06:11;;;;;;;2.47;0.95;;;17.10;60.50;;;;;;4984772;28;20033;-59
2022/02/09 19:49:30;;;;;;;1.23;0.80;;;18.40;57.80;;;;;;5003211;28;20076;-58
2022/02/09 19:52:10;;;;;;;1.42;0.90;;;18.40;57.70;;;;;;5003607;28;20116;-55
2022/02/09 19:57:08;;;;;;;1.90;1.13;;;18.50;57.60;;;;;;4976563;28;20030;-57
2022/02/09 19:59:36;;;;;;;2.83;1.05;;;18.50;57.60;;;;;;4982617;28;20039;-56
2022/02/09 20:02:02;;;;;;;3.33;0.80;;;18.60;57.60;;;;;;4984564;28;20058;-61
2022/02/09 20:04:28;;;;;;;1.98;0.90;;;18.60;57.60;;;;;;4966364;28;20396;-56
2022/02/09 20:06:53;;;;;;;2.50;0.90;;;18.60;57.60;;;;;;4984308;28;20865;-60
2022/02/09 20:09:22;;;;;;;2.33;1.02;;;18.60;57.60;;;;;;4983891;28;20034;-60
2022/02/09 20:11:47;;;;;;;2.22;1.20;;;18.70;57.50;;;;;;4984512;28;20109;-60
2022/02/09 20:14:13;;;;;;;2.90;1.45;;;18.70;57.50;;;;;;4984534;28;20027;-59
2022/02/09 20:16:39;;;;;;;2.03;1.70;;;18.70;57.40;;;;;;4984635;28;20117;-59
2022/02/09 20:19:04;;;;;;;4.25;1.20;;;18.70;57.30;;;;;;4983812;28;20493;-58
2022/02/09 20:21:30;;;;;;;2.08;1.25;;;18.80;57.10;;;;;;4984043;28;20037;-58
2022/02/09 20:23:56;;;;;;;3.28;1.38;;;18.70;57.20;;;;;;4984173;28;20538;-59
2022/02/09 20:26:22;;;;;;;4.60;1.60;;;18.80;57.20;;;;;;4984019;28;20121;-59
2022/02/09 20:28:59;;;;;;;5.28;2.33;;;18.80;57.00;;;;;;4984072;28;20396;-57
2022/02/09 20:31:30;;;;;;;14.32;4.88;;;18.80;57.20;;;;;;4984411;28;20105;-57
2022/02/09 20:34:05;;;;;;;25.92;9.38;;;18.90;57.30;;;;;;4984414;28;20026;-59
2022/02/09 20:36:32;;;;;;;24.52;12.20;;;18.90;57.50;;;;;;4984088;28;20492;-58
2022/02/09 20:39:00;;;;;;;42.85;18.08;;;18.90;57.60;;;;;;4983680;28;20030;-58
2022/02/09 20:41:26;;;;;;;39.47;18.75;;;18.90;57.70;;;;;;4984221;28;20436;-58
2022/02/09 20:44:16;;;;;;;47.78;19.63;;;19.00;57.90;;;;;;4984559;28;20133;-59
2022/02/09 20:46:42;;;;;;;43.63;20.00;;;19.00;57.90;;;;;;5014612;28;20042;-58
2022/02/09 20:49:07;;;;;;;48.67;19.67;;;19.10;57.90;;;;;;4984299;28;20272;-58
2022/02/09 20:51:32;;;;;;;43.33;20.00;;;19.10;57.80;;;;;;4983149;28;20042;-58
2022/02/09 20:53:58;;;;;;;45.55;18.55;;;19.10;57.90;;;;;;4984198;28;20031;-58
2022/02/09 20:56:24;;;;;;;41.60;18.38;;;19.10;57.90;;;;;;4984065;28;20424;-57
2022/02/09 20:58:55;;;;;;;48.08;18.60;;;19.20;58.00;;;;;;4983357;28;20443;-60
2022/02/09 21:01:28;;;;;;;43.63;18.35;;;19.20;57.90;;;;;;4983812;28;20057;-58
2022/02/09 21:04:00;;;;;;;37.95;17.02;;;19.20;57.80;;;;;;4983919;28;20048;-59
2022/02/09 21:06:51;;;;;;;34.78;16.92;;;19.20;57.80;;;;;;4982573;28;20440;-58
2022/02/09 21:09:39;;;;;;;37.72;16.90;;;19.30;57.80;;;;;;5000053;28;20057;-58
2022/02/09 21:50:02;;;;;;;24.80;11.23;;;19.50;57.00;;;;;;5005664;28;20073;-59
2022/02/09 21:57:53;;;;;;;17.30;9.32;;;19.50;56.90;;;;;;4944749;28;20437;-58
2022/02/09 22:00:41;;;;;;;21.63;9.77;;;19.40;56.80;;;;;;4925365;29;20581;-57
2022/02/09 22:19:12;;;;;;;18.08;8.32;;;19.50;56.60;;;;;;4986376;28;20110;-58
2022/02/09 22:27:53;;;;;;;13.03;6.63;;;19.50;56.50;;;;;;4982859;28;20041;-59
2022/02/09 22:56:36;;;;;;;9.93;6.37;;;19.40;56.10;;;;;;4985846;28;20033;-58
2022/02/09 22:59:07;;;;;;;12.18;6.07;;;19.50;56.20;;;;;;4984360;28;20054;-59
2022/02/09 23:06:50;;;;;;;8.43;4.70;;;19.50;56.10;;;;;;4985722;28;20034;-58
2022/02/09 23:09:41;;;;;;;10.35;5.15;;;19.50;56.10;;;;;;5004835;28;20486;-59
2022/02/09 23:12:55;;;;;;;12.75;6.20;;;19.50;56.00;;;;;;5005038;28;20034;-58
2022/02/09 23:55:51;;;;;;;9.57;4.38;;;19.50;56.00;;;;;;5004555;28;20256;-56
2022/02/09 23:58:34;;;;;;;8.85;4.50;;;19.50;56.00;;;;;;5004297;28;20056;-59
